Terminal Aerodrome Forecast
Issued by NWS

Home | Current Version | Previous Version | Text Only | Print | Product List | Glossary On
Versions: 1 2 3 4 5 6 7 8 9 10 11 12 13 14 15 16 17 18
000
FTAK31 PAJN 232324
TAFAWG
TAF
PAWG 232324Z 2400/2424 30008KT P6SM VCSH SCT005 BKN020 OVC045
      TEMPO 2400/2402 -SHRA BKN004
     FM240300 28009KT P6SM BKN025 BKN045
     FM240900 26004KT P6SM BKN025 OVC040
     FM242100 28008KT P6SM BKN035
      AMD LTD TO CLD VIS AND WIND 2406/2415=

USA.gov is the U.S. government's official web portal to all federal, state and local government web resources and services.